createdAt,value
2022-09-24T00:03:14.633Z,3.72
2022-09-24T00:08:17.029Z,4.18
2022-09-24T00:13:19.383Z,4.88
2022-09-24T00:18:21.906Z,4.60
2022-09-24T00:23:22.683Z,5.63
2022-09-24T00:28:24.641Z,4.85
2022-09-24T00:33:26.143Z,5.07
2022-09-24T00:38:26.761Z,5.18
2022-09-24T00:43:30.936Z,5.20
2022-09-24T00:48:34.276Z,4.97
2022-09-24T00:53:35.780Z,5.20
2022-09-24T00:58:38.113Z,4.95
2022-09-24T01:03:42.385Z,4.63
2022-09-24T01:08:43.475Z,5.28
2022-09-24T01:13:56.345Z,4.85
2022-09-24T01:19:05.750Z,5.43
2022-09-24T01:24:41.117Z,5.45
2022-09-24T01:29:53.284Z,4.32
2022-09-24T01:34:58.808Z,5.22
2022-09-24T01:40:00.747Z,5.05
2022-09-24T01:45:03.748Z,5.18
2022-09-24T01:50:05.884Z,4.55
2022-09-24T01:55:08.965Z,4.90
2022-09-24T02:00:13.078Z,5.78
2022-09-24T02:05:19.742Z,4.70
2022-09-24T02:10:21.631Z,5.00
2022-09-24T02:15:32.215Z,4.82
2022-09-24T02:20:36.269Z,4.93
2022-09-24T02:25:42.823Z,4.57
2022-09-24T02:30:50.819Z,4.90
2022-09-24T02:35:53.378Z,4.95
2022-09-24T02:40:55.256Z,5.43
2022-09-24T02:45:57.377Z,4.72
2022-09-24T02:50:57.989Z,5.35
2022-09-24T02:56:00.262Z,5.45
2022-09-24T03:01:02.304Z,4.90
2022-09-24T03:06:02.910Z,4.90
2022-09-24T03:11:04.175Z,4.72
2022-09-24T03:16:07.578Z,5.43
2022-09-24T03:21:12.111Z,5.72
2022-09-24T03:26:13.116Z,5.30
2022-09-24T03:31:15.133Z,4.60
2022-09-24T03:36:18.039Z,4.65
2022-09-24T03:41:18.963Z,4.53
2022-09-24T03:46:21.034Z,5.07
2022-09-24T03:51:22.800Z,4.75
2022-09-24T03:56:23.445Z,5.53
2022-09-24T04:01:25.463Z,5.00
2022-09-24T04:06:27.088Z,4.85
2022-09-24T04:11:27.831Z,5.55
2022-09-24T04:16:29.847Z,5.15
2022-09-24T04:21:30.947Z,5.20
2022-09-24T04:26:32.007Z,5.32
2022-09-24T04:31:34.326Z,5.20
2022-09-24T04:36:35.004Z,5.82
2022-09-24T04:41:36.055Z,5.68
2022-09-24T04:46:38.209Z,5.78
2022-09-24T04:51:39.137Z,5.38
2022-09-24T04:56:39.736Z,5.65
2022-09-24T05:01:41.780Z,5.70
2022-09-24T05:06:42.477Z,4.93
2022-09-24T05:11:43.082Z,5.50
2022-09-24T05:16:45.053Z,5.03
2022-09-24T05:21:46.318Z,4.88
2022-09-24T05:27:04.642Z,5.13
2022-09-24T05:32:13.042Z,5.22
2022-09-24T05:37:15.524Z,5.05
2022-09-24T05:42:16.233Z,5.10
2022-09-24T05:47:18.284Z,4.88
2022-09-24T05:52:18.927Z,4.85
2022-09-24T05:57:19.694Z,4.70
2022-09-24T06:02:21.688Z,5.25
2022-09-24T06:07:22.453Z,5.00
2022-09-24T06:12:23.580Z,5.00
2022-09-24T06:17:27.217Z,5.57
2022-09-24T06:22:29.221Z,4.85
2022-09-24T06:27:29.828Z,5.15
2022-09-24T06:32:32.064Z,5.00
2022-09-24T06:37:34.044Z,4.78
2022-09-24T06:42:34.717Z,4.72
2022-09-24T06:47:36.697Z,5.72
2022-09-24T06:52:37.446Z,4.60
2022-09-24T06:57:38.125Z,4.30
2022-09-24T07:02:40.185Z,4.47
2022-09-24T07:07:41.421Z,4.43
2022-09-24T07:12:42.814Z,4.65
2022-09-24T07:17:44.762Z,4.50
2022-09-24T07:22:45.433Z,4.47
2022-09-24T07:27:46.063Z,4.50
2022-09-24T07:32:48.342Z,4.70
2022-09-24T07:37:48.996Z,4.47
2022-09-24T07:42:49.758Z,3.97
2022-09-24T07:47:59.842Z,4.70
2022-09-24T07:53:01.395Z,4.25
2022-09-24T07:58:02.161Z,4.15
2022-09-24T08:03:05.631Z,4.10
2022-09-24T08:08:06.457Z,3.92
2022-09-24T08:13:07.086Z,4.20
2022-09-24T08:18:09.281Z,4.35
2022-09-24T08:23:11.055Z,4.40
2022-09-24T08:28:12.152Z,4.10
2022-09-24T08:33:15.390Z,4.50
2022-09-24T08:38:15.996Z,3.75
2022-09-24T08:43:30.965Z,3.95
2022-09-24T08:48:37.222Z,4.13
2022-09-24T08:53:48.633Z,3.88
2022-09-24T08:58:53.881Z,3.83
2022-09-24T09:04:05.012Z,4.00
2022-09-24T09:09:12.840Z,3.70
2022-09-24T09:14:18.712Z,3.35
2022-09-24T09:19:27.525Z,4.15
2022-09-24T09:24:36.157Z,3.00
2022-09-24T09:29:37.521Z,3.55
2022-09-24T09:34:52.527Z,3.03
2022-09-24T09:40:00.498Z,4.20
2022-09-24T09:45:02.813Z,3.65
2022-09-24T09:50:12.339Z,3.63
2022-09-24T09:55:23.045Z,3.13
2022-09-24T10:00:33.545Z,3.15
2022-09-24T10:05:35.832Z,3.33
2022-09-24T10:10:36.465Z,3.30
2022-09-24T10:15:50.078Z,2.95
2022-09-24T10:20:52.519Z,2.97
2022-09-24T10:25:59.928Z,2.22
2022-09-24T10:31:04.738Z,2.70
2022-09-24T10:36:09.609Z,2.72
2022-09-24T10:41:27.829Z,2.65
2022-09-24T10:46:44.134Z,2.75
2022-09-24T10:51:53.250Z,2.72
2022-09-24T10:56:57.761Z,2.30
2022-09-24T11:02:18.105Z,1.92
2022-09-24T11:07:50.249Z,2.20
2022-09-24T11:13:03.652Z,2.10
2022-09-24T11:18:19.785Z,2.08
2022-09-24T11:23:43.651Z,2.67
2022-09-24T11:29:05.366Z,3.03
2022-09-24T11:34:22.694Z,2.63
2022-09-24T11:39:38.938Z,2.30
2022-09-24T11:45:02.905Z,2.40
2022-09-24T11:50:27.256Z,1.65
2022-09-24T11:55:35.803Z,2.70
2022-09-24T12:00:41.576Z,2.38
2022-09-24T12:05:49.377Z,1.90
2022-09-24T12:10:57.930Z,2.13
2022-09-24T12:16:04.202Z,2.30
2022-09-24T12:21:10.761Z,2.25
2022-09-24T12:26:16.935Z,2.42
2022-09-24T12:31:43.053Z,2.20
2022-09-24T12:36:57.559Z,2.33
2022-09-24T12:42:03.989Z,1.88
2022-09-24T12:47:07.233Z,1.88
2022-09-24T12:52:19.142Z,2.28
2022-09-24T12:57:26.143Z,2.28
2022-09-24T13:02:29.544Z,2.17
2022-09-24T13:07:32.335Z,2.00
2022-09-24T13:12:34.426Z,1.85
2022-09-24T13:17:38.258Z,2.05
2022-09-24T13:22:38.944Z,2.20
2022-09-24T13:27:43.329Z,2.00
2022-09-24T13:32:50.277Z,2.20
2022-09-24T13:37:57.148Z,2.50
2022-09-24T13:43:06.276Z,1.80
2022-09-24T13:48:19.547Z,2.35
2022-09-24T13:53:27.510Z,1.73
2022-09-24T13:58:31.261Z,1.70
2022-09-24T14:03:34.612Z,2.30
2022-09-24T14:08:36.089Z,1.88
2022-09-24T14:13:45.688Z,1.92
2022-09-24T14:18:47.074Z,2.00
2022-09-24T14:23:54.629Z,1.83
2022-09-24T14:28:59.038Z,1.80
2022-09-24T14:34:04.383Z,2.08
2022-09-24T14:39:06.787Z,1.90
2022-09-24T14:44:15.412Z,1.90
2022-09-24T14:49:20.439Z,1.95
2022-09-24T14:54:28.422Z,1.80
2022-09-24T14:59:32.244Z,1.77
2022-09-24T15:04:33.162Z,1.70
2022-09-24T15:09:33.964Z,2.00
2022-09-24T15:14:36.778Z,1.98
2022-09-24T15:19:40.887Z,2.25
2022-09-24T15:24:41.591Z,2.55
2022-09-24T15:29:43.565Z,2.97
2022-09-24T15:34:44.386Z,2.55
2022-09-24T15:39:49.163Z,3.08
2022-09-24T15:44:51.650Z,2.40
2022-09-24T15:49:52.451Z,2.78
2022-09-24T15:54:54.368Z,3.22
2022-09-24T15:59:56.501Z,3.47
2022-09-24T16:05:01.456Z,3.40
2022-09-24T16:10:05.245Z,3.67
2022-09-24T16:15:09.074Z,3.45
2022-09-24T16:20:10.670Z,4.20
2022-09-24T16:25:11.419Z,4.63
2022-09-24T16:30:13.626Z,4.90
2022-09-24T16:35:14.323Z,4.70
2022-09-24T16:40:15.442Z,4.60
2022-09-24T16:45:18.085Z,5.13
2022-09-24T16:50:20.169Z,5.07
2022-09-24T16:55:20.885Z,5.65
2022-09-24T17:00:22.894Z,6.53
2022-09-24T17:05:23.761Z,7.22
2022-09-24T17:10:24.438Z,6.55
2022-09-24T17:15:27.324Z,6.63
2022-09-24T17:20:27.978Z,6.57
2022-09-24T17:25:28.651Z,6.80
2022-09-24T17:30:30.734Z,5.80
2022-09-24T17:35:31.387Z,7.28
2022-09-24T17:40:32.075Z,6.68
2022-09-24T17:45:34.156Z,6.78
2022-09-24T17:50:34.839Z,6.90
2022-09-24T17:55:36.066Z,7.38
2022-09-24T18:00:39.280Z,7.90
2022-09-24T18:05:40.304Z,7.68
2022-09-24T18:10:41.077Z,7.00
2022-09-24T18:15:43.108Z,8.48
2022-09-24T18:20:43.896Z,7.03
2022-09-24T18:25:44.644Z,8.30
2022-09-24T18:30:46.681Z,8.02
2022-09-24T18:35:47.338Z,7.70
2022-09-24T18:40:49.348Z,8.07
2022-09-24T18:45:51.446Z,8.98
2022-09-24T18:50:52.139Z,8.05
2022-09-24T18:55:53.109Z,8.98
2022-09-24T19:00:59.800Z,9.32
2022-09-24T19:06:02.825Z,9.70
2022-09-24T19:11:09.271Z,8.77
2022-09-24T19:16:13.333Z,9.65
2022-09-24T19:21:15.657Z,9.48
2022-09-24T19:26:18.031Z,10.38
2022-09-24T19:31:22.202Z,10.50
2022-09-24T19:36:23.402Z,11.18
2022-09-24T19:41:26.995Z,10.70
2022-09-24T19:46:31.269Z,11.85
2022-09-24T19:51:34.187Z,11.77
2022-09-24T19:56:35.360Z,11.85
2022-09-24T20:01:37.684Z,11.55
2022-09-24T20:06:39.664Z,12.07
2022-09-24T20:11:40.581Z,10.27
2022-09-24T20:16:44.548Z,11.68
2022-09-24T20:21:45.218Z,9.50
2022-09-24T20:27:03.558Z,9.23
2022-09-24T20:32:05.759Z,8.77
2022-09-24T20:37:06.674Z,9.10
2022-09-24T20:42:07.318Z,8.65
2022-09-24T20:47:10.392Z,9.73
2022-09-24T20:52:11.040Z,9.55
2022-09-24T20:57:11.671Z,9.85
2022-09-24T21:02:13.701Z,9.25
2022-09-24T21:07:14.453Z,8.73
2022-09-24T21:12:15.066Z,9.02
2022-09-24T21:17:17.864Z,8.35
2022-09-24T21:22:18.547Z,9.15
2022-09-24T21:27:19.962Z,8.75
2022-09-24T21:32:22.086Z,8.40
2022-09-24T21:37:23.318Z,8.63
2022-09-24T21:42:25.406Z,9.45
2022-09-24T21:47:27.357Z,10.50
2022-09-24T21:52:31.318Z,9.90
2022-09-24T21:57:31.935Z,9.88
2022-09-24T22:02:33.941Z,9.32
2022-09-24T22:07:34.607Z,9.27
2022-09-24T22:12:35.459Z,9.75
2022-09-24T22:17:37.530Z,9.88
2022-09-24T22:22:38.145Z,9.20
2022-09-24T22:27:38.766Z,9.82
2022-09-24T22:32:40.750Z,9.27
2022-09-24T22:37:41.401Z,10.48
2022-09-24T22:42:42.002Z,9.38
2022-09-24T22:47:43.962Z,10.30
2022-09-24T22:52:44.589Z,9.95
2022-09-24T22:57:45.189Z,10.45
2022-09-24T23:02:47.336Z,10.93
2022-09-24T23:07:49.009Z,10.20
2022-09-24T23:12:50.075Z,9.40
2022-09-24T23:17:52.230Z,9.50
2022-09-24T23:22:52.892Z,9.60
2022-09-24T23:27:53.509Z,10.50
2022-09-24T23:32:55.455Z,10.50
2022-09-24T23:37:56.090Z,11.18
2022-09-24T23:42:56.770Z,10.48
2022-09-24T23:47:59.096Z,10.00
2022-09-24T23:52:59.748Z,10.98
2022-09-24T23:58:00.463Z,10.57
